createdAt,value
2023-05-14T00:01:25.154Z,95471.53
2023-05-14T00:03:52.801Z,95471.53
2023-05-14T00:06:20.671Z,95461.56
2023-05-14T00:08:48.253Z,95465.84
2023-05-14T00:11:15.978Z,95461.75
2023-05-14T00:13:43.710Z,95457.28
2023-05-14T00:16:12.989Z,95469.72
2023-05-14T00:18:40.782Z,95458.94
2023-05-14T00:21:08.457Z,95463.00
2023-05-14T00:23:36.185Z,95456.50
2023-05-14T00:26:03.802Z,95458.72
2023-05-14T00:28:31.664Z,95454.03
2023-05-14T00:30:59.348Z,95455.28
2023-05-14T00:33:28.451Z,95462.22
2023-05-14T00:35:56.093Z,95453.25
2023-05-14T00:38:24.424Z,95452.44
2023-05-14T00:40:52.240Z,95455.28
2023-05-14T00:43:20.929Z,95457.72
2023-05-14T00:45:50.995Z,95447.13
2023-05-14T00:48:20.275Z,95451.00
2023-05-14T00:50:50.924Z,95450.00
2023-05-14T00:53:20.057Z,95448.34
2023-05-14T00:55:50.517Z,95442.22
2023-05-14T00:58:19.096Z,95435.31
2023-05-14T01:00:47.218Z,95436.13
2023-05-14T01:03:14.967Z,95432.06
2023-05-14T01:05:50.973Z,95431.25
2023-05-14T01:08:39.260Z,95434.69
2023-05-14T01:11:12.466Z,95439.19
2023-05-14T01:13:48.221Z,95432.66
2023-05-14T01:16:19.897Z,95439.19
2023-05-14T01:18:49.655Z,95446.31
2023-05-14T01:21:26.738Z,95441.41
2023-05-14T01:23:54.350Z,95439.38
2023-05-14T01:26:22.167Z,95436.72
2023-05-14T01:28:52.673Z,95438.56
2023-05-14T01:31:28.106Z,95437.94
2023-05-14T01:33:58.614Z,95444.47
2023-05-14T01:36:29.577Z,95436.53
2023-05-14T01:38:57.925Z,95446.31
2023-05-14T01:41:26.867Z,95447.50
2023-05-14T01:43:54.971Z,95436.72
2023-05-14T01:46:24.714Z,95435.72
2023-05-14T01:48:52.456Z,95438.97
2023-05-14T01:51:20.063Z,95442.22
2023-05-14T01:53:49.196Z,95436.91
2023-05-14T01:56:16.802Z,95431.22
2023-05-14T01:58:44.561Z,95431.22
2023-05-14T02:01:12.234Z,95432.88
2023-05-14T02:03:40.019Z,95431.22
2023-05-14T02:06:08.090Z,95436.09
2023-05-14T02:08:36.073Z,95422.25
2023-05-14T02:11:05.114Z,95434.91
2023-05-14T02:13:32.910Z,95426.31
2023-05-14T02:16:00.543Z,95429.59
2023-05-14T02:18:28.368Z,95424.31
2023-05-14T02:20:57.420Z,95420.22
2023-05-14T02:23:34.145Z,95422.28
2023-05-14T02:26:08.461Z,95433.47
2023-05-14T02:28:36.078Z,95419.84
2023-05-14T02:31:03.764Z,95423.09
2023-05-14T02:33:31.480Z,95422.88
2023-05-14T02:36:00.160Z,95419.41
2023-05-14T02:38:28.586Z,95412.28
2023-05-14T02:40:57.630Z,95414.94
2023-05-14T02:43:26.788Z,95410.88
2023-05-14T02:45:54.557Z,95412.06
2023-05-14T02:48:22.353Z,95404.34
2023-05-14T02:50:51.088Z,95405.16
2023-05-14T02:53:18.841Z,95405.97
2023-05-14T02:55:47.083Z,95394.75
2023-05-14T02:58:15.019Z,95401.06
2023-05-14T03:00:44.246Z,95400.66
2023-05-14T03:03:12.501Z,95392.72
2023-05-14T03:05:40.801Z,95401.09
2023-05-14T03:08:08.496Z,95395.97
2023-05-14T03:10:36.371Z,95389.03
2023-05-14T03:13:04.188Z,95397.00
2023-05-14T03:15:31.807Z,95389.25
2023-05-14T03:18:01.032Z,95387.22
2023-05-14T03:20:29.037Z,95384.56
2023-05-14T03:22:56.853Z,95381.91
2023-05-14T03:25:25.528Z,95389.69
2023-05-14T03:27:53.331Z,95388.44
2023-05-14T03:30:21.071Z,95389.88
2023-05-14T03:32:49.646Z,95388.84
2023-05-14T03:35:18.837Z,95393.94
2023-05-14T03:37:46.784Z,95392.09
2023-05-14T03:40:14.404Z,95393.13
2023-05-14T03:42:44.286Z,95390.06
2023-05-14T03:45:12.118Z,95392.53
2023-05-14T03:47:39.986Z,95390.47
2023-05-14T03:50:09.097Z,95396.59
2023-05-14T03:52:38.219Z,95387.59
2023-05-14T03:55:06.560Z,95382.72
2023-05-14T03:57:34.223Z,95384.34
2023-05-14T04:00:03.515Z,95391.88
2023-05-14T04:02:44.502Z,95382.72
2023-05-14T04:05:12.557Z,95388.03
2023-05-14T04:07:41.504Z,95389.66
2023-05-14T04:10:10.562Z,95382.09
2023-05-14T04:12:38.261Z,95389.25
2023-05-14T04:15:11.180Z,95379.91
2023-05-14T04:17:39.004Z,95390.47
2023-05-14T04:20:08.188Z,95386.81
2023-05-14T04:22:35.835Z,95393.72
2023-05-14T04:25:05.219Z,95387.03
2023-05-14T04:27:34.338Z,95383.97
2023-05-14T04:30:01.994Z,95381.75
2023-05-14T04:32:30.217Z,95382.34
2023-05-14T04:34:57.840Z,95386.63
2023-05-14T04:37:26.033Z,95382.13
2023-05-14T04:39:53.749Z,95376.63
2023-05-14T04:42:22.837Z,95377.66
2023-05-14T04:44:50.554Z,95378.69
2023-05-14T04:47:18.154Z,95377.06
2023-05-14T04:49:45.759Z,95383.19
2023-05-14T04:52:13.988Z,95381.13
2023-05-14T04:54:41.647Z,95379.09
2023-05-14T04:57:09.444Z,95393.94
2023-05-14T04:59:38.410Z,95390.88
2023-05-14T05:02:06.148Z,95390.66
2023-05-14T05:04:33.754Z,95385.19
2023-05-14T05:07:01.547Z,95394.97
2023-05-14T05:09:29.154Z,95385.59
2023-05-14T05:11:56.990Z,95392.13
2023-05-14T05:14:24.581Z,95394.16
2023-05-14T05:16:53.711Z,95391.69
2023-05-14T05:19:29.173Z,95394.56
2023-05-14T05:22:04.151Z,95381.75
2023-05-14T05:24:31.815Z,95387.03
2023-05-14T05:26:59.831Z,95383.97
2023-05-14T05:29:27.838Z,95383.16
2023-05-14T05:31:56.938Z,95389.28
2023-05-14T05:34:24.777Z,95394.97
2023-05-14T05:36:52.585Z,95390.06
2023-05-14T05:39:20.614Z,95387.84
2023-05-14T05:41:48.274Z,95389.47
2023-05-14T05:44:16.013Z,95385.00
2023-05-14T05:46:43.678Z,95385.38
2023-05-14T05:49:12.743Z,95382.34
2023-05-14T05:51:40.340Z,95394.16
2023-05-14T05:54:08.154Z,95381.94
2023-05-14T05:56:35.808Z,95390.50
2023-05-14T05:59:04.042Z,95384.78
2023-05-14T06:01:32.046Z,95385.19
2023-05-14T06:03:59.653Z,95393.53
2023-05-14T06:06:29.741Z,95389.25
2023-05-14T06:08:57.358Z,95393.16
2023-05-14T06:11:25.730Z,95385.19
2023-05-14T06:13:53.466Z,95390.50
2023-05-14T06:16:21.370Z,95386.81
2023-05-14T06:18:49.311Z,95394.97
2023-05-14T06:21:17.023Z,95397.41
2023-05-14T06:23:46.061Z,95390.06
2023-05-14T06:26:13.953Z,95398.84
2023-05-14T06:28:41.545Z,95400.06
2023-05-14T06:31:09.520Z,95392.53
2023-05-14T06:33:37.377Z,95395.16
2023-05-14T06:36:07.101Z,95395.78
2023-05-14T06:38:34.822Z,95395.78
2023-05-14T06:41:04.053Z,95394.56
2023-05-14T06:43:31.663Z,95397.19
2023-05-14T06:45:59.281Z,95390.88
2023-05-14T06:48:27.884Z,95405.16
2023-05-14T06:50:56.013Z,95397.63
2023-05-14T06:53:23.644Z,95397.63
2023-05-14T06:55:52.238Z,95390.50
2023-05-14T06:58:21.257Z,95397.81
2023-05-14T07:00:49.231Z,95389.03
2023-05-14T07:03:16.908Z,95388.44
2023-05-14T07:05:46.672Z,95381.47
2023-05-14T07:08:14.776Z,95393.31
2023-05-14T07:10:42.465Z,95394.94
2023-05-14T07:13:10.184Z,95378.22
2023-05-14T07:15:39.134Z,95386.16
2023-05-14T07:18:06.948Z,95390.41
2023-05-14T07:20:34.648Z,95382.22
2023-05-14T07:23:02.392Z,95387.09
2023-05-14T07:25:30.003Z,95387.84
2023-05-14T07:27:57.721Z,95378.19
2023-05-14T07:30:25.626Z,95382.44
2023-05-14T07:32:55.117Z,95376.34
2023-05-14T07:35:22.804Z,95380.81
2023-05-14T07:37:50.665Z,95371.69
2023-05-14T07:40:18.407Z,95380.44
2023-05-14T07:42:46.052Z,95388.97
2023-05-14T07:45:13.660Z,95385.09
2023-05-14T07:47:41.718Z,95383.41
2023-05-14T07:50:12.596Z,95378.31
2023-05-14T07:52:40.249Z,95381.63
2023-05-14T07:55:08.674Z,95382.44
2023-05-14T07:57:36.421Z,95391.00
2023-05-14T08:00:04.895Z,95383.69
2023-05-14T08:02:40.148Z,95383.09
2023-05-14T08:05:09.038Z,95389.63
2023-05-14T08:07:38.020Z,95391.09
2023-05-14T08:10:07.845Z,95377.41
2023-05-14T08:12:35.547Z,95382.84
2023-05-14T08:15:03.552Z,95376.31
2023-05-14T08:17:31.178Z,95375.41
2023-05-14T08:19:58.830Z,95377.94
2023-05-14T08:22:26.432Z,95376.75
2023-05-14T08:24:55.619Z,95367.66
2023-05-14T08:27:23.354Z,95365.53
2023-05-14T08:29:51.556Z,95359.63
2023-05-14T08:32:23.210Z,95362.47
2023-05-14T08:34:52.260Z,95357.09
2023-05-14T08:37:20.183Z,95351.28
2023-05-14T08:39:47.930Z,95352.38
2023-05-14T08:42:21.558Z,95349.38
2023-05-14T08:44:50.818Z,95339.63
2023-05-14T08:47:22.406Z,95339.38
2023-05-14T08:49:59.318Z,95345.22
2023-05-14T08:52:27.302Z,95346.91
2023-05-14T08:54:56.258Z,95338.63
2023-05-14T08:57:26.830Z,95347.81
2023-05-14T08:59:54.766Z,95336.75
2023-05-14T09:02:25.926Z,95342.09
2023-05-14T09:04:56.886Z,95339.84
2023-05-14T09:07:24.878Z,95337.88
2023-05-14T09:09:53.299Z,95335.41
2023-05-14T09:12:21.444Z,95340.97
2023-05-14T09:14:51.630Z,95339.44
2023-05-14T09:17:19.668Z,95342.13
2023-05-14T09:19:49.284Z,95344.38
2023-05-14T09:22:18.616Z,95339.28
2023-05-14T09:24:47.301Z,95339.03
2023-05-14T09:27:20.620Z,95344.72
2023-05-14T09:29:50.278Z,95349.50
2023-05-14T09:32:17.924Z,95340.63
2023-05-14T09:34:45.767Z,95339.44
2023-05-14T09:37:13.378Z,95339.25
2023-05-14T09:39:41.228Z,95341.91
2023-05-14T09:42:09.045Z,95329.44
2023-05-14T09:44:38.186Z,95336.19
2023-05-14T09:47:07.629Z,95335.75
2023-05-14T09:49:35.257Z,95331.72
2023-05-14T09:52:03.804Z,95333.78
2023-05-14T09:54:33.678Z,95332.19
2023-05-14T09:57:01.439Z,95340.75
2023-05-14T09:59:29.170Z,95342.09
2023-05-14T10:01:58.357Z,95344.31
2023-05-14T10:04:27.714Z,95333.78
2023-05-14T10:06:56.544Z,95334.50
2023-05-14T10:09:27.032Z,95336.13
2023-05-14T10:11:57.944Z,95333.88
2023-05-14T10:14:30.334Z,95337.28
2023-05-14T10:17:01.856Z,95335.66
2023-05-14T10:19:34.193Z,95328.72
2023-05-14T10:22:05.566Z,95336.00
2023-05-14T10:24:34.171Z,95336.94
2023-05-14T10:27:02.134Z,95334.50
2023-05-14T10:29:35.124Z,95333.69
2023-05-14T10:32:06.675Z,95320.72
2023-05-14T10:34:38.527Z,95328.69
2023-05-14T10:37:09.975Z,95331.41
2023-05-14T10:39:45.787Z,95338.34
2023-05-14T10:42:14.536Z,95330.38
2023-05-14T10:44:51.291Z,95335.31
2023-05-14T10:47:19.378Z,95337.44
2023-05-14T10:49:53.001Z,95326.84
2023-05-14T10:52:22.045Z,95336.16
2023-05-14T10:54:51.661Z,95324.22
2023-05-14T10:57:20.169Z,95319.38
2023-05-14T10:59:49.273Z,95321.81
2023-05-14T11:02:22.460Z,95316.78
2023-05-14T11:05:03.912Z,95319.47
2023-05-14T11:07:33.564Z,95326.94
2023-05-14T11:10:05.875Z,95320.34
2023-05-14T11:12:34.448Z,95328.34
2023-05-14T11:15:03.852Z,95325.78
2023-05-14T11:17:32.688Z,95319.06
2023-05-14T11:20:01.680Z,95314.13
2023-05-14T11:22:29.530Z,95315.25
2023-05-14T11:24:57.457Z,95314.34
2023-05-14T11:27:26.287Z,95312.22
2023-05-14T11:29:55.961Z,95313.13
2023-05-14T11:32:23.740Z,95310.16
2023-05-14T11:34:51.755Z,95299.91
2023-05-14T11:37:21.049Z,95295.53
2023-05-14T11:39:50.245Z,95293.72
2023-05-14T11:42:19.547Z,95293.38
2023-05-14T11:44:49.095Z,95291.09
2023-05-14T11:47:18.197Z,95301.69
2023-05-14T11:49:46.267Z,95287.38
2023-05-14T11:52:15.161Z,95284.00
2023-05-14T11:54:45.368Z,95285.91
2023-05-14T11:57:14.331Z,95287.72
2023-05-14T11:59:42.435Z,95290.94
2023-05-14T12:02:11.899Z,95277.53
2023-05-14T12:04:39.848Z,95276.94
2023-05-14T12:07:11.673Z,95277.78
2023-05-14T12:09:44.231Z,95273.88
2023-05-14T12:12:14.260Z,95270.69
2023-05-14T12:14:43.878Z,95260.09
2023-05-14T12:17:16.861Z,95261.75
2023-05-14T12:19:46.386Z,95261.88
2023-05-14T12:22:16.750Z,95258.44
2023-05-14T12:24:44.980Z,95257.13
2023-05-14T12:27:14.076Z,95248.81
2023-05-14T12:29:41.673Z,95247.75
2023-05-14T12:32:11.051Z,95249.69
2023-05-14T12:34:40.224Z,95242.81
2023-05-14T12:37:08.208Z,95245.25
2023-05-14T12:39:35.899Z,95247.28
2023-05-14T12:42:03.769Z,95242.41
2023-05-14T12:44:32.678Z,95241.59
2023-05-14T12:47:00.568Z,95238.84
2023-05-14T12:49:28.306Z,95235.28
2023-05-14T12:52:07.697Z,95240.78
2023-05-14T12:54:43.872Z,95238.28
2023-05-14T12:57:11.499Z,95232.53
2023-05-14T12:59:41.092Z,95227.19
2023-05-14T13:02:09.133Z,95224.44
2023-05-14T13:04:37.413Z,95222.81
2023-05-14T13:07:05.182Z,95215.63
2023-05-14T13:09:32.807Z,95212.13
2023-05-14T13:12:00.442Z,95214.13
2023-05-14T13:14:28.174Z,95213.72
2023-05-14T13:16:57.179Z,95202.03
2023-05-14T13:19:25.398Z,95205.41
2023-05-14T13:21:53.016Z,95198.25
2023-05-14T13:24:20.888Z,95193.88
2023-05-14T13:26:48.490Z,95194.25
2023-05-14T13:29:16.495Z,95186.47
2023-05-14T13:31:44.085Z,95179.94
2023-05-14T13:34:14.467Z,95185.09
2023-05-14T13:36:43.879Z,95178.56
2023-05-14T13:39:13.561Z,95179.94
2023-05-14T13:41:42.222Z,95176.44
2023-05-14T13:44:09.852Z,95166.09
2023-05-14T13:46:37.556Z,95165.09
2023-05-14T13:49:05.201Z,95165.00
2023-05-14T13:51:34.459Z,95157.94
2023-05-14T13:54:02.148Z,95163.19
2023-05-14T13:56:30.667Z,95152.47
2023-05-14T13:58:58.465Z,95159.47
2023-05-14T14:01:26.127Z,95154.50
2023-05-14T14:03:53.730Z,95151.25
2023-05-14T14:06:21.439Z,95147.19
2023-05-14T14:08:50.508Z,95140.91
2023-05-14T14:11:18.242Z,95140.50
2023-05-14T14:13:46.755Z,95136.19
2023-05-14T14:16:14.708Z,95125.19
2023-05-14T14:18:43.373Z,95125.50
2023-05-14T14:21:12.038Z,95119.06
2023-05-14T14:23:39.661Z,95121.84
2023-05-14T14:26:08.629Z,95115.03
2023-05-14T14:28:36.386Z,95120.13
2023-05-14T14:31:04.106Z,95113.47
2023-05-14T14:33:31.829Z,95114.00
2023-05-14T14:35:59.431Z,95111.84
2023-05-14T14:38:27.154Z,95110.78
2023-05-14T14:40:54.751Z,95110.00
2023-05-14T14:43:23.858Z,95104.06
2023-05-14T14:45:51.515Z,95104.22
2023-05-14T14:48:31.530Z,95094.91
2023-05-14T14:50:59.708Z,95096.13
2023-05-14T14:53:28.048Z,95100.41
2023-05-14T14:55:55.659Z,95091.91
2023-05-14T14:58:25.324Z,95086.50
2023-05-14T15:00:54.582Z,95090.81
2023-05-14T15:03:22.841Z,95083.75
2023-05-14T15:05:51.186Z,95082.91
2023-05-14T15:08:18.790Z,95079.34
2023-05-14T15:10:46.560Z,95071.22
2023-05-14T15:13:14.209Z,95077.00
2023-05-14T15:15:43.468Z,95066.50
2023-05-14T15:18:11.532Z,95060.97
2023-05-14T15:20:39.607Z,95057.63
2023-05-14T15:23:07.272Z,95056.84
2023-05-14T15:25:35.081Z,95061.00
2023-05-14T15:28:02.699Z,95062.63
2023-05-14T15:30:31.299Z,95066.66
2023-05-14T15:33:00.546Z,95061.78
2023-05-14T15:35:28.253Z,95070.72
2023-05-14T15:37:57.131Z,95066.25
2023-05-14T15:40:25.097Z,95076.81
2023-05-14T15:42:52.839Z,95067.81
2023-05-14T15:45:20.637Z,95071.72
2023-05-14T15:47:48.308Z,95070.63
2023-05-14T15:50:17.568Z,95075.16
2023-05-14T15:52:45.194Z,95077.38
2023-05-14T15:55:12.822Z,95076.66
2023-05-14T15:57:40.487Z,95079.88
2023-05-14T16:00:10.942Z,95069.97
2023-05-14T16:02:39.149Z,95070.50
2023-05-14T16:05:08.426Z,95069.94
2023-05-14T16:07:38.090Z,95062.44
2023-05-14T16:10:06.773Z,95066.63
2023-05-14T16:12:35.111Z,95068.38
2023-05-14T16:15:03.060Z,95066.66
2023-05-14T16:17:32.820Z,95065.25
2023-05-14T16:20:00.769Z,95058.91
2023-05-14T16:22:29.195Z,95060.69
2023-05-14T16:24:58.208Z,95051.22
2023-05-14T16:27:26.027Z,95049.81
2023-05-14T16:29:53.991Z,95062.91
2023-05-14T16:32:21.696Z,95061.78
2023-05-14T16:34:50.454Z,95057.78
2023-05-14T16:37:19.825Z,95053.97
2023-05-14T16:39:47.475Z,95066.25
2023-05-14T16:42:16.692Z,95073.19
2023-05-14T16:44:44.473Z,95068.16
2023-05-14T16:47:12.156Z,95069.59
2023-05-14T16:49:39.920Z,95062.81
2023-05-14T16:52:08.356Z,95074.19
2023-05-14T16:54:36.387Z,95085.84
2023-05-14T16:57:04.148Z,95079.91
2023-05-14T16:59:33.539Z,95076.81
2023-05-14T17:02:01.261Z,95078.00
2023-05-14T17:04:29.024Z,95080.72
2023-05-14T17:06:57.403Z,95081.75
2023-05-14T17:09:25.157Z,95084.94
2023-05-14T17:11:52.907Z,95097.72
2023-05-14T17:14:20.711Z,95117.84
2023-05-14T17:16:49.999Z,95129.53
2023-05-14T17:19:17.735Z,95144.13
2023-05-14T17:21:45.348Z,95147.31
2023-05-14T17:24:13.122Z,95154.25
2023-05-14T17:26:40.917Z,95154.72
2023-05-14T17:29:08.639Z,95155.34
2023-05-14T17:31:36.394Z,95164.31
2023-05-14T17:34:05.654Z,95174.88
2023-05-14T17:36:33.309Z,95180.97
2023-05-14T17:39:00.925Z,95188.25
2023-05-14T17:41:28.667Z,95182.34
2023-05-14T17:43:56.259Z,95189.28
2023-05-14T17:46:24.549Z,95189.28
2023-05-14T17:48:52.262Z,95178.06
2023-05-14T17:51:21.212Z,95178.06
2023-05-14T17:53:48.789Z,95170.25
2023-05-14T17:56:18.472Z,95160.50
2023-05-14T17:58:46.174Z,95169.34
2023-05-14T18:01:14.022Z,95169.97
2023-05-14T18:03:42.300Z,95165.53
2023-05-14T18:06:10.606Z,95172.63
2023-05-14T18:08:39.554Z,95165.47
2023-05-14T18:11:07.511Z,95162.06
2023-05-14T18:13:35.417Z,95164.44
2023-05-14T18:16:03.795Z,95166.22
2023-05-14T18:18:31.847Z,95162.53
2023-05-14T18:20:59.491Z,95165.81
2023-05-14T18:23:27.267Z,95156.06
2023-05-14T18:25:56.426Z,95150.69
2023-05-14T18:28:24.148Z,95154.16
2023-05-14T18:30:51.830Z,95147.31
2023-05-14T18:33:19.660Z,95153.41
2023-05-14T18:35:47.276Z,95155.94
2023-05-14T18:38:17.911Z,95175.84
2023-05-14T18:40:45.678Z,95172.53
2023-05-14T18:43:15.051Z,95167.03
2023-05-14T18:45:42.726Z,95167.59
2023-05-14T18:48:10.930Z,95167.16
2023-05-14T18:50:39.456Z,95167.38
2023-05-14T18:53:07.651Z,95167.59
2023-05-14T18:55:35.962Z,95164.38
2023-05-14T18:58:03.885Z,95168.75
2023-05-14T19:00:32.819Z,95169.78
2023-05-14T19:03:00.546Z,95167.41
2023-05-14T19:05:28.361Z,95176.84
2023-05-14T19:07:56.107Z,95169.91
2023-05-14T19:10:23.732Z,95165.84
2023-05-14T19:12:51.360Z,95168.56
2023-05-14T19:15:19.222Z,95174.16
2023-05-14T19:17:49.091Z,95166.59
2023-05-14T19:20:16.893Z,95170.75
2023-05-14T19:22:44.528Z,95174.66
2023-05-14T19:25:12.253Z,95166.91
2023-05-14T19:27:40.127Z,95171.00
2023-05-14T19:30:09.056Z,95178.81
2023-05-14T19:32:37.920Z,95173.34
2023-05-14T19:35:07.544Z,95182.16
2023-05-14T19:37:35.173Z,95185.69
2023-05-14T19:40:03.587Z,95186.75
2023-05-14T19:42:31.760Z,95188.00
2023-05-14T19:44:59.504Z,95179.84
2023-05-14T19:47:28.466Z,95191.84
2023-05-14T19:52:46.099Z,95191.25
2023-05-14T19:55:13.887Z,95185.50
2023-05-14T19:57:41.514Z,95194.50
2023-05-14T20:00:10.456Z,95189.19
2023-05-14T20:02:41.957Z,95188.00
2023-05-14T20:05:10.581Z,95190.84
2023-05-14T20:07:40.144Z,95187.19
2023-05-14T20:10:10.653Z,95193.69
2023-05-14T20:12:38.364Z,95193.31
2023-05-14T20:15:06.849Z,95192.88
2023-05-14T20:17:34.566Z,95187.13
2023-05-14T20:20:02.386Z,95194.94
2023-05-14T20:22:30.000Z,95197.19
2023-05-14T20:24:57.617Z,95194.75
2023-05-14T20:27:27.199Z,95192.53
2023-05-14T20:29:54.977Z,95191.75
2023-05-14T20:32:24.944Z,95202.97
2023-05-14T20:34:52.853Z,95199.72
2023-05-14T20:37:20.771Z,95189.00
2023-05-14T20:39:48.624Z,95196.16
2023-05-14T20:42:16.272Z,95195.56
2023-05-14T20:44:45.548Z,95194.56
2023-05-14T20:47:16.312Z,95186.81
2023-05-14T20:49:43.984Z,95187.44
2023-05-14T20:52:11.594Z,95191.97
2023-05-14T20:54:39.395Z,95185.88
2023-05-14T20:57:07.094Z,95190.16
2023-05-14T20:59:34.830Z,95180.22
2023-05-14T21:02:03.998Z,95189.19
2023-05-14T21:04:31.847Z,95189.22
2023-05-14T21:06:59.546Z,95188.81
2023-05-14T21:09:27.612Z,95188.41
2023-05-14T21:11:55.699Z,95193.47
2023-05-14T21:14:23.757Z,95194.28
2023-05-14T21:16:51.429Z,95190.22
2023-05-14T21:19:20.653Z,95188.81
2023-05-14T21:21:48.434Z,95200.25
2023-05-14T21:24:16.713Z,95195.19
2023-05-14T21:26:44.477Z,95193.34
2023-05-14T21:29:12.101Z,95188.91
2023-05-14T21:31:39.851Z,95187.69
2023-05-14T21:34:07.519Z,95195.03
2023-05-14T21:36:36.686Z,95188.53
2023-05-14T21:39:05.467Z,95182.81
2023-05-14T21:41:33.619Z,95187.31
2023-05-14T21:44:01.213Z,95192.59
2023-05-14T21:46:28.931Z,95189.78
2023-05-14T21:48:56.957Z,95194.63
2023-05-14T21:51:25.127Z,95193.00
2023-05-14T21:53:54.345Z,95193.00
2023-05-14T21:56:22.459Z,95197.88
2023-05-14T21:58:50.259Z,95190.53
2023-05-14T22:01:18.147Z,95193.41
2023-05-14T22:03:45.838Z,95189.31
2023-05-14T22:06:13.766Z,95188.28
2023-05-14T22:08:41.363Z,95185.44
2023-05-14T22:11:10.714Z,95184.41
2023-05-14T22:13:40.983Z,95185.44
2023-05-14T22:16:13.376Z,95182.00
2023-05-14T22:18:41.640Z,95184.41
2023-05-14T22:21:09.304Z,95179.53
2023-05-14T22:23:37.530Z,95176.06
2023-05-14T22:26:05.954Z,95173.41
2023-05-14T22:28:35.061Z,95165.47
2023-05-14T22:31:04.076Z,95173.41
2023-05-14T22:33:33.311Z,95166.50
2023-05-14T22:36:00.955Z,95169.78
2023-05-14T22:38:28.722Z,95167.16
2023-05-14T22:40:56.412Z,95166.13
2023-05-14T22:43:24.240Z,95166.72
2023-05-14T22:45:53.235Z,95165.69
2023-05-14T22:48:21.106Z,95165.31
2023-05-14T22:50:48.712Z,95156.56
2023-05-14T22:53:16.313Z,95155.94
2023-05-14T22:55:44.035Z,95151.28
2023-05-14T22:58:12.183Z,95146.63
2023-05-14T23:00:39.795Z,95141.97
2023-05-14T23:03:08.967Z,95143.00
2023-05-14T23:05:36.708Z,95140.59
2023-05-14T23:08:04.689Z,95135.69
2023-05-14T23:10:32.479Z,95138.53
2023-05-14T23:13:00.086Z,95134.25
2023-05-14T23:15:27.900Z,95135.25
2023-05-14T23:17:55.659Z,95136.09
2023-05-14T23:20:24.655Z,95140.59
2023-05-14T23:22:52.396Z,95136.31
2023-05-14T23:25:20.220Z,95133.47
2023-05-14T23:27:47.959Z,95127.94
2023-05-14T23:30:15.782Z,95124.31
2023-05-14T23:32:43.428Z,95116.97
2023-05-14T23:35:11.431Z,95114.94
2023-05-14T23:37:46.847Z,95110.47
2023-05-14T23:40:15.567Z,95116.16
2023-05-14T23:42:43.996Z,95105.59
2023-05-14T23:45:12.970Z,95113.53
2023-05-14T23:47:41.524Z,95105.38
2023-05-14T23:50:09.456Z,95104.34
2023-05-14T23:52:37.092Z,95104.34
2023-05-14T23:55:07.054Z,95106.38
2023-05-14T23:57:34.982Z,95102.91
